Time;durP1;ratioP1;P1;durP2;ratioP2;P2;SDS_P1;SDS_P2;PMS_P1;PMS_P2;Temp;Humidity;BMP_temperature;BMP_pressure;BME280_temperature;BME280_humidity;BME280_pressure;Samples;Min_cycle;Max_cycle;Signal;HPM_P1;HPM_P2
2023/04/24 00:00:14;;;;;;;0.90;0.70;;;;;;;;;;5036642;28;20234;-58
2023/04/24 00:02:46;;;;;;;0.82;0.75;;;;;;;;;;5036463;28;20206;-58
2023/04/24 00:05:14;;;;;;;0.80;0.75;;;;;;;;;;5036527;28;20277;-58
2023/04/24 00:07:42;;;;;;;1.73;0.93;;;;;;;;;;5037015;28;20202;-58
2023/04/24 00:10:10;;;;;;;1.30;0.75;;;;;;;;;;5037083;28;20241;-58
2023/04/24 00:12:40;;;;;;;0.70;0.70;;;;;;;;;;5037044;28;20205;-58
2023/04/24 00:15:08;;;;;;;1.20;0.90;;;;;;;;;;5037013;28;20214;-58
2023/04/24 00:17:36;;;;;;;0.75;0.68;;;;;;;;;;5036408;28;20225;-58
2023/04/24 00:20:06;;;;;;;1.08;0.80;;;;;;;;;;5036313;28;20296;-58
2023/04/24 00:22:34;;;;;;;0.80;0.60;;;;;;;;;;5036185;28;20202;-58
2023/04/24 00:25:02;;;;;;;0.80;0.80;;;;;;;;;;5033884;28;20593;-58
2023/04/24 00:27:30;;;;;;;1.33;0.80;;;;;;;;;;5023421;28;20203;-58
2023/04/24 00:29:59;;;;;;;0.88;0.70;;;;;;;;;;5036006;28;20596;-58
2023/04/24 00:32:27;;;;;;;1.02;0.80;;;;;;;;;;5036904;28;20581;-58
2023/04/24 00:34:55;;;;;;;0.70;0.70;;;;;;;;;;5035355;28;20209;-58
2023/04/24 00:37:22;;;;;;;1.23;0.70;;;;;;;;;;5035668;28;20232;-58
2023/04/24 00:39:50;;;;;;;0.98;0.80;;;;;;;;;;5035673;28;20213;-58
2023/04/24 00:42:18;;;;;;;0.95;0.80;;;;;;;;;;5036249;28;20206;-58
2023/04/24 00:44:46;;;;;;;1.38;0.80;;;;;;;;;;5036291;28;20206;-58
2023/04/24 00:47:16;;;;;;;1.33;0.80;;;;;;;;;;5037020;28;20209;-58
2023/04/24 00:49:43;;;;;;;0.70;0.70;;;;;;;;;;5034314;28;20206;-58
2023/04/24 00:52:12;;;;;;;0.93;0.70;;;;;;;;;;5036143;28;20197;-58
2023/04/24 00:54:40;;;;;;;0.55;0.55;;;;;;;;;;5036388;28;20206;-58
2023/04/24 00:57:08;;;;;;;1.33;0.77;;;;;;;;;;5035733;28;20202;-58
2023/04/24 00:59:36;;;;;;;0.90;0.65;;;;;;;;;;5036419;28;20234;-58
2023/04/24 01:02:04;;;;;;;0.75;0.70;;;;;;;;;;5036535;28;20612;-58
2023/04/24 01:04:33;;;;;;;1.08;0.70;;;;;;;;;;5036736;28;20244;-58
2023/04/24 01:07:02;;;;;;;0.60;0.60;;;;;;;;;;5036556;28;20217;-58
2023/04/24 01:09:30;;;;;;;1.17;0.63;;;;;;;;;;5035423;28;20202;-58
2023/04/24 01:11:58;;;;;;;0.90;0.70;;;;;;;;;;5036001;28;20205;-58
2023/04/24 01:14:26;;;;;;;0.60;0.60;;;;;;;;;;5037468;28;20347;-58
2023/04/24 01:16:54;;;;;;;0.70;0.70;;;;;;;;;;5040086;28;20228;-58
2023/04/24 01:19:22;;;;;;;0.95;0.60;;;;;;;;;;5043139;28;20233;-58
2023/04/24 01:21:52;;;;;;;0.77;0.70;;;;;;;;;;5039630;28;20581;-58
2023/04/24 01:24:22;;;;;;;0.70;0.70;;;;;;;;;;5039079;28;20229;-58
2023/04/24 01:26:49;;;;;;;0.50;0.50;;;;;;;;;;5039483;28;20194;-58
2023/04/24 01:29:17;;;;;;;0.82;0.80;;;;;;;;;;5039806;28;20566;-58
2023/04/24 01:31:45;;;;;;;0.63;0.63;;;;;;;;;;5040108;28;20587;-58
2023/04/24 01:34:13;;;;;;;0.57;0.52;;;;;;;;;;5039559;28;20255;-58
2023/04/24 01:36:41;;;;;;;0.80;0.73;;;;;;;;;;5038463;28;20581;-59
2023/04/24 01:39:09;;;;;;;1.13;0.60;;;;;;;;;;5022331;28;20290;-59
2023/04/24 01:41:38;;;;;;;0.60;0.57;;;;;;;;;;5041287;28;20217;-58
2023/04/24 01:44:06;;;;;;;0.73;0.60;;;;;;;;;;5039023;28;20229;-58
2023/04/24 01:46:35;;;;;;;0.70;0.60;;;;;;;;;;5039273;28;20303;-59
2023/04/24 01:49:03;;;;;;;0.88;0.60;;;;;;;;;;5039384;28;20243;-59
2023/04/24 01:51:31;;;;;;;0.70;0.60;;;;;;;;;;5038246;28;20241;-58
2023/04/24 01:54:02;;;;;;;0.50;0.50;;;;;;;;;;5039636;28;20277;-58
2023/04/24 01:56:31;;;;;;;0.63;0.60;;;;;;;;;;5039224;28;20206;-58
2023/04/24 01:59:00;;;;;;;0.77;0.70;;;;;;;;;;5038694;28;20272;-58
2023/04/24 02:01:28;;;;;;;0.77;0.60;;;;;;;;;;5039338;28;20237;-58
2023/04/24 02:03:56;;;;;;;0.70;0.70;;;;;;;;;;5038920;28;20293;-58
2023/04/24 02:06:24;;;;;;;0.93;0.60;;;;;;;;;;5039905;28;20410;-58
2023/04/24 02:08:52;;;;;;;1.02;0.60;;;;;;;;;;5038940;28;20194;-58
2023/04/24 02:11:19;;;;;;;0.70;0.60;;;;;;;;;;5039510;28;20213;-59
2023/04/24 02:13:47;;;;;;;0.50;0.45;;;;;;;;;;5039289;28;20536;-58
2023/04/24 02:16:16;;;;;;;0.73;0.60;;;;;;;;;;5038580;28;20316;-58
2023/04/24 02:18:45;;;;;;;1.67;0.60;;;;;;;;;;5038695;28;20342;-59
2023/04/24 02:21:13;;;;;;;0.45;0.45;;;;;;;;;;5039062;28;20212;-59
2023/04/24 02:23:40;;;;;;;0.60;0.60;;;;;;;;;;5039118;28;20206;-58
2023/04/24 02:26:08;;;;;;;0.93;0.75;;;;;;;;;;5037534;28;20296;-58
2023/04/24 02:28:36;;;;;;;0.50;0.50;;;;;;;;;;5038584;28;20209;-58
2023/04/24 02:31:04;;;;;;;0.70;0.70;;;;;;;;;;5038590;28;20213;-59
2023/04/24 02:33:34;;;;;;;0.77;0.63;;;;;;;;;;5038502;28;20210;-59
2023/04/24 02:36:02;;;;;;;0.82;0.60;;;;;;;;;;5038337;28;20206;-59
2023/04/24 02:38:29;;;;;;;1.77;0.50;;;;;;;;;;5038656;28;20230;-59
2023/04/24 02:40:57;;;;;;;0.50;0.50;;;;;;;;;;5038600;28;20206;-59
2023/04/24 02:43:25;;;;;;;0.50;0.40;;;;;;;;;;5038212;28;20209;-59
2023/04/24 02:45:53;;;;;;;0.65;0.60;;;;;;;;;;5038453;28;20267;-59
2023/04/24 02:48:21;;;;;;;0.50;0.50;;;;;;;;;;5038110;28;20201;-59
2023/04/24 02:50:50;;;;;;;0.68;0.68;;;;;;;;;;5038042;28;20570;-59
2023/04/24 02:53:18;;;;;;;0.60;0.60;;;;;;;;;;5038081;28;20209;-58
2023/04/24 02:55:46;;;;;;;1.95;0.50;;;;;;;;;;5038070;28;20206;-58
2023/04/24 02:58:14;;;;;;;0.73;0.52;;;;;;;;;;5037853;28;20644;-58
2023/04/24 03:00:41;;;;;;;1.02;0.52;;;;;;;;;;5038050;28;20242;-58
2023/04/24 03:03:09;;;;;;;0.93;0.60;;;;;;;;;;5038238;28;20205;-58
2023/04/24 03:05:37;;;;;;;0.82;0.63;;;;;;;;;;5037728;28;20213;-58
2023/04/24 03:08:06;;;;;;;0.50;0.50;;;;;;;;;;5037923;28;20256;-58
2023/04/24 03:10:34;;;;;;;0.43;0.40;;;;;;;;;;5037477;28;20209;-58
2023/04/24 03:13:02;;;;;;;0.80;0.50;;;;;;;;;;5038020;28;20213;-58
2023/04/24 03:15:30;;;;;;;0.47;0.43;;;;;;;;;;5037584;28;20205;-59
2023/04/24 03:17:58;;;;;;;0.50;0.40;;;;;;;;;;5037976;28;22118;-59
2023/04/24 03:20:25;;;;;;;1.48;0.68;;;;;;;;;;5037683;28;20206;-59
2023/04/24 03:22:53;;;;;;;1.45;0.60;;;;;;;;;;5037457;28;20237;-59
2023/04/24 03:25:22;;;;;;;0.50;0.50;;;;;;;;;;5037305;28;20242;-58
2023/04/24 03:27:50;;;;;;;1.10;0.60;;;;;;;;;;5037075;28;20574;-58
2023/04/24 03:30:18;;;;;;;0.50;0.50;;;;;;;;;;5037488;28;20220;-58
2023/04/24 03:32:46;;;;;;;0.60;0.60;;;;;;;;;;5037460;28;20213;-58
2023/04/24 03:35:14;;;;;;;0.50;0.50;;;;;;;;;;5037393;28;20205;-58
2023/04/24 03:37:42;;;;;;;0.47;0.45;;;;;;;;;;5037223;28;20277;-58
2023/04/24 03:40:10;;;;;;;0.50;0.50;;;;;;;;;;5037298;28;20840;-58
2023/04/24 03:42:40;;;;;;;0.70;0.70;;;;;;;;;;5036956;28;20365;-58
2023/04/24 03:45:08;;;;;;;0.50;0.40;;;;;;;;;;5037230;28;20286;-58
2023/04/24 03:47:36;;;;;;;0.63;0.60;;;;;;;;;;5037442;28;20578;-58
2023/04/24 03:50:04;;;;;;;0.82;0.60;;;;;;;;;;5036794;28;20252;-58
2023/04/24 03:52:32;;;;;;;0.57;0.57;;;;;;;;;;5036920;28;20248;-58
2023/04/24 03:54:59;;;;;;;0.55;0.50;;;;;;;;;;5037193;28;20574;-58
2023/04/24 03:57:27;;;;;;;0.57;0.57;;;;;;;;;;5036853;28;20249;-58
2023/04/24 03:59:56;;;;;;;0.60;0.50;;;;;;;;;;5036968;28;20303;-58
2023/04/24 04:02:24;;;;;;;0.60;0.60;;;;;;;;;;5037280;28;20220;-58
2023/04/24 04:04:51;;;;;;;0.98;0.40;;;;;;;;;;5037299;28;20268;-58
2023/04/24 04:07:19;;;;;;;0.60;0.60;;;;;;;;;;5037213;28;20209;-58
2023/04/24 04:09:46;;;;;;;0.50;0.50;;;;;;;;;;5036580;28;20267;-58
2023/04/24 04:12:14;;;;;;;0.50;0.50;;;;;;;;;;5037169;28;20616;-58
2023/04/24 04:14:41;;;;;;;0.50;0.50;;;;;;;;;;5036474;28;20216;-58
2023/04/24 04:17:10;;;;;;;0.57;0.57;;;;;;;;;;5036191;28;20213;-58
2023/04/24 04:19:38;;;;;;;0.60;0.60;;;;;;;;;;5036158;28;20808;-58
2023/04/24 04:22:07;;;;;;;0.47;0.47;;;;;;;;;;5035480;28;20205;-58
2023/04/24 04:24:37;;;;;;;0.50;0.50;;;;;;;;;;5035755;28;20308;-58
2023/04/24 04:27:05;;;;;;;0.60;0.50;;;;;;;;;;5036013;28;20321;-58
2023/04/24 04:29:34;;;;;;;0.70;0.63;;;;;;;;;;5035945;28;20202;-58
2023/04/24 04:32:02;;;;;;;0.43;0.40;;;;;;;;;;5035801;28;20735;-58
2023/04/24 04:34:31;;;;;;;0.60;0.57;;;;;;;;;;5035283;28;20465;-58
2023/04/24 04:37:02;;;;;;;0.40;0.40;;;;;;;;;;5036150;28;20265;-58
2023/04/24 04:39:30;;;;;;;0.73;0.50;;;;;;;;;;5035565;28;20420;-58
2023/04/24 04:41:58;;;;;;;0.50;0.40;;;;;;;;;;5035604;28;20229;-58
2023/04/24 04:44:27;;;;;;;0.52;0.50;;;;;;;;;;5035396;28;20197;-58
2023/04/24 04:46:56;;;;;;;0.52;0.50;;;;;;;;;;5035001;28;20684;-58
2023/04/24 04:49:24;;;;;;;0.50;0.50;;;;;;;;;;5035943;28;20252;-58
2023/04/24 04:51:53;;;;;;;0.45;0.40;;;;;;;;;;5038989;28;20216;-59
2023/04/24 04:54:20;;;;;;;0.40;0.40;;;;;;;;;;5038659;28;20217;-58
2023/04/24 04:56:48;;;;;;;0.50;0.50;;;;;;;;;;5038647;28;20213;-58
2023/04/24 04:59:16;;;;;;;0.35;0.35;;;;;;;;;;5038059;28;20245;-58
2023/04/24 05:01:43;;;;;;;0.50;0.40;;;;;;;;;;5037966;28;20206;-58
2023/04/24 05:04:11;;;;;;;0.73;0.40;;;;;;;;;;5037335;28;20240;-58
2023/04/24 05:06:38;;;;;;;0.50;0.50;;;;;;;;;;5037939;28;20209;-58
2023/04/24 05:09:07;;;;;;;0.40;0.40;;;;;;;;;;5038012;28;20550;-58
2023/04/24 05:11:35;;;;;;;0.50;0.50;;;;;;;;;;5037012;28;20300;-58
2023/04/24 05:14:02;;;;;;;0.68;0.50;;;;;;;;;;5036581;28;20205;-58
2023/04/24 05:16:30;;;;;;;0.50;0.50;;;;;;;;;;5037088;28;20562;-58
2023/04/24 05:18:58;;;;;;;0.50;0.50;;;;;;;;;;5036070;28;20287;-58
2023/04/24 05:21:26;;;;;;;0.55;0.55;;;;;;;;;;5036493;28;20206;-58
2023/04/24 05:23:54;;;;;;;0.50;0.50;;;;;;;;;;5036409;28;20202;-58
2023/04/24 05:26:23;;;;;;;0.52;0.52;;;;;;;;;;5036973;28;20206;-58
2023/04/24 05:28:51;;;;;;;0.50;0.50;;;;;;;;;;5036942;28;20595;-58
2023/04/24 05:31:18;;;;;;;0.60;0.50;;;;;;;;;;5036854;28;20267;-58
2023/04/24 05:33:46;;;;;;;0.43;0.43;;;;;;;;;;5036166;28;20210;-58
2023/04/24 05:36:13;;;;;;;0.50;0.50;;;;;;;;;;5036644;28;20209;-58
2023/04/24 05:38:41;;;;;;;2.88;0.50;;;;;;;;;;5037479;28;20216;-58
2023/04/24 05:41:08;;;;;;;0.40;0.40;;;;;;;;;;5036184;28;20268;-59
2023/04/24 05:43:37;;;;;;;1.27;0.40;;;;;;;;;;5036086;28;20209;-59
2023/04/24 05:46:05;;;;;;;0.70;0.50;;;;;;;;;;5035964;28;20760;-59
2023/04/24 05:48:32;;;;;;;1.83;0.70;;;;;;;;;;5035526;28;20206;-59
2023/04/24 05:51:00;;;;;;;0.73;0.40;;;;;;;;;;5035624;28;20709;-59
2023/04/24 05:53:27;;;;;;;0.40;0.40;;;;;;;;;;5036533;28;20283;-59
2023/04/24 05:55:55;;;;;;;0.75;0.45;;;;;;;;;;5035602;28;20287;-59
2023/04/24 05:58:23;;;;;;;0.43;0.43;;;;;;;;;;5036422;28;20255;-59
2023/04/24 06:00:52;;;;;;;0.63;0.50;;;;;;;;;;5035147;28;20307;-59
2023/04/24 06:03:20;;;;;;;0.60;0.40;;;;;;;;;;5035842;28;20239;-58
2023/04/24 06:05:47;;;;;;;0.50;0.50;;;;;;;;;;5036276;28;20213;-58
2023/04/24 06:08:15;;;;;;;0.70;0.47;;;;;;;;;;5036537;28;20239;-58
2023/04/24 06:10:43;;;;;;;0.52;0.40;;;;;;;;;;5036921;28;20248;-59
2023/04/24 06:13:11;;;;;;;1.02;0.55;;;;;;;;;;5036237;28;20267;-59
2023/04/24 06:15:38;;;;;;;0.90;0.30;;;;;;;;;;5035814;28;20205;-59
2023/04/24 06:18:07;;;;;;;0.50;0.50;;;;;;;;;;5035681;28;20589;-59
2023/04/24 06:20:35;;;;;;;0.40;0.40;;;;;;;;;;5035853;28;20230;-59
2023/04/24 06:23:02;;;;;;;0.40;0.40;;;;;;;;;;5035960;28;20209;-59
2023/04/24 06:25:30;;;;;;;0.40;0.40;;;;;;;;;;5036015;28;20300;-59
2023/04/24 06:27:58;;;;;;;1.05;0.47;;;;;;;;;;5035694;28;20224;-59
2023/04/24 06:30:25;;;;;;;0.60;0.60;;;;;;;;;;5036433;28;20525;-59
2023/04/24 06:32:53;;;;;;;0.77;0.43;;;;;;;;;;5036253;28;20259;-59
2023/04/24 06:35:22;;;;;;;0.60;0.60;;;;;;;;;;5036594;28;20213;-59
2023/04/24 06:37:50;;;;;;;0.50;0.50;;;;;;;;;;5036626;28;20205;-59
2023/04/24 06:40:18;;;;;;;1.00;0.70;;;;;;;;;;5036470;28;20519;-59
2023/04/24 06:42:45;;;;;;;0.63;0.55;;;;;;;;;;5036236;28;20197;-58
2023/04/24 06:45:13;;;;;;;0.57;0.50;;;;;;;;;;5035489;28;20205;-58
2023/04/24 06:47:40;;;;;;;0.82;0.60;;;;;;;;;;5035964;28;20573;-58
2023/04/24 06:50:08;;;;;;;0.88;0.50;;;;;;;;;;5036010;28;20264;-59
2023/04/24 06:52:37;;;;;;;0.93;0.60;;;;;;;;;;5036446;28;20705;-59
2023/04/24 06:55:05;;;;;;;0.43;0.43;;;;;;;;;;5036232;28;20205;-59
2023/04/24 06:57:33;;;;;;;1.30;0.60;;;;;;;;;;5036181;28;20209;-59
2023/04/24 07:00:00;;;;;;;0.60;0.50;;;;;;;;;;5035135;28;20245;-59
2023/04/24 07:02:28;;;;;;;1.40;0.50;;;;;;;;;;5035115;28;20206;-59
2023/04/24 07:04:56;;;;;;;0.40;0.40;;;;;;;;;;5034755;28;20202;-59
2023/04/24 07:07:24;;;;;;;1.30;0.55;;;;;;;;;;5035973;28;20217;-59
2023/04/24 07:09:53;;;;;;;0.50;0.47;;;;;;;;;;5034947;28;20309;-59
2023/04/24 07:12:21;;;;;;;0.75;0.50;;;;;;;;;;5035831;28;20213;-59
2023/04/24 07:14:49;;;;;;;0.50;0.50;;;;;;;;;;5034691;28;20213;-59
2023/04/24 07:17:16;;;;;;;0.65;0.60;;;;;;;;;;5034873;28;20213;-59
2023/04/24 07:19:44;;;;;;;0.50;0.50;;;;;;;;;;5034855;28;20287;-59
2023/04/24 07:22:16;;;;;;;0.52;0.52;;;;;;;;;;5035206;28;20206;-59
2023/04/24 07:24:44;;;;;;;0.50;0.43;;;;;;;;;;5034638;28;20300;-59
2023/04/24 07:27:14;;;;;;;0.90;0.50;;;;;;;;;;5034715;28;20210;-59
2023/04/24 07:29:42;;;;;;;0.50;0.50;;;;;;;;;;5033828;28;20198;-59
2023/04/24 07:32:09;;;;;;;0.40;0.40;;;;;;;;;;5035181;28;20205;-59
2023/04/24 07:34:37;;;;;;;0.40;0.40;;;;;;;;;;5035244;28;20584;-59
2023/04/24 07:37:05;;;;;;;0.70;0.43;;;;;;;;;;5034799;28;20206;-59
2023/04/24 07:39:32;;;;;;;1.48;0.50;;;;;;;;;;5034505;28;20233;-59
2023/04/24 07:42:02;;;;;;;0.60;0.40;;;;;;;;;;5035147;28;20205;-59
2023/04/24 07:44:31;;;;;;;0.80;0.50;;;;;;;;;;5034677;28;20216;-59
2023/04/24 07:46:59;;;;;;;0.55;0.55;;;;;;;;;;5034627;28;20209;-59
2023/04/24 07:49:27;;;;;;;0.60;0.50;;;;;;;;;;5034324;28;20447;-59
2023/04/24 07:51:55;;;;;;;0.50;0.50;;;;;;;;;;5033807;28;20653;-59
2023/04/24 07:54:23;;;;;;;0.65;0.50;;;;;;;;;;5034582;28;20257;-59
2023/04/24 07:56:50;;;;;;;0.65;0.50;;;;;;;;;;5034270;28;20264;-59
2023/04/24 07:59:18;;;;;;;0.40;0.40;;;;;;;;;;5033167;28;20245;-58
2023/04/24 08:01:47;;;;;;;0.52;0.50;;;;;;;;;;5034031;28;20263;-58
2023/04/24 08:04:14;;;;;;;0.40;0.40;;;;;;;;;;5033823;28;20268;-58
2023/04/24 08:06:42;;;;;;;0.73;0.47;;;;;;;;;;5034369;28;20205;-58
2023/04/24 08:09:09;;;;;;;0.60;0.60;;;;;;;;;;5034955;28;20533;-58
2023/04/24 08:11:37;;;;;;;0.50;0.40;;;;;;;;;;5034326;28;20213;-58
2023/04/24 08:14:04;;;;;;;0.57;0.52;;;;;;;;;;5033578;28;20206;-58
2023/04/24 08:16:32;;;;;;;0.70;0.45;;;;;;;;;;5032571;28;20237;-58
2023/04/24 08:19:01;;;;;;;0.57;0.32;;;;;;;;;;5033414;28;20205;-58
2023/04/24 08:21:28;;;;;;;0.63;0.45;;;;;;;;;;5033622;28;20225;-58
2023/04/24 08:23:56;;;;;;;0.45;0.45;;;;;;;;;;5033988;28;20209;-58
2023/04/24 08:26:24;;;;;;;0.82;0.60;;;;;;;;;;5038025;28;20554;-58
2023/04/24 08:28:52;;;;;;;0.55;0.40;;;;;;;;;;5038216;28;20213;-59
2023/04/24 08:31:19;;;;;;;0.50;0.43;;;;;;;;;;5039253;28;20213;-59
2023/04/24 08:33:47;;;;;;;0.52;0.30;;;;;;;;;;5039128;28;20221;-59
2023/04/24 08:36:16;;;;;;;0.50;0.50;;;;;;;;;;5038186;28;20201;-59
2023/04/24 08:38:46;;;;;;;0.70;0.40;;;;;;;;;;5038673;28;20207;-59
2023/04/24 08:41:16;;;;;;;0.40;0.40;;;;;;;;;;5038791;28;20241;-58
2023/04/24 08:43:44;;;;;;;0.55;0.55;;;;;;;;;;5039395;28;20211;-58
2023/04/24 08:46:12;;;;;;;0.52;0.40;;;;;;;;;;5038784;28;20271;-58
2023/04/24 08:48:40;;;;;;;0.60;0.50;;;;;;;;;;5038742;28;20267;-58
2023/04/24 08:51:08;;;;;;;0.40;0.40;;;;;;;;;;5038558;28;21038;-58
2023/04/24 08:53:37;;;;;;;0.68;0.60;;;;;;;;;;5038599;28;20212;-58
2023/04/24 08:56:05;;;;;;;0.50;0.50;;;;;;;;;;5038112;28;20213;-58
2023/04/24 08:58:34;;;;;;;0.40;0.40;;;;;;;;;;5038193;28;20213;-58
2023/04/24 09:01:02;;;;;;;0.73;0.50;;;;;;;;;;5037870;28;20632;-58
2023/04/24 09:03:30;;;;;;;0.60;0.50;;;;;;;;;;5037910;28;20290;-58
2023/04/24 09:05:59;;;;;;;0.57;0.57;;;;;;;;;;5037593;28;20272;-58
2023/04/24 09:08:27;;;;;;;0.50;0.50;;;;;;;;;;5038260;28;20214;-58
2023/04/24 09:10:58;;;;;;;0.50;0.50;;;;;;;;;;5037852;28;20202;-58
2023/04/24 09:13:26;;;;;;;0.45;0.45;;;;;;;;;;5037516;28;20213;-58
2023/04/24 09:15:54;;;;;;;0.60;0.52;;;;;;;;;;5037806;28;20202;-58
2023/04/24 09:18:21;;;;;;;0.60;0.50;;;;;;;;;;5037677;28;20553;-58
2023/04/24 09:21:01;;;;;;;0.47;0.47;;;;;;;;;;5037137;28;20236;-58
2023/04/24 09:23:30;;;;;;;0.50;0.50;;;;;;;;;;5037957;28;20236;-58
2023/04/24 09:26:00;;;;;;;0.65;0.60;;;;;;;;;;5036815;28;20296;-58
2023/04/24 09:28:28;;;;;;;0.40;0.40;;;;;;;;;;5037157;28;20206;-58
2023/04/24 09:31:04;;;;;;;0.40;0.40;;;;;;;;;;5036890;28;20332;-58
2023/04/24 09:33:31;;;;;;;0.52;0.50;;;;;;;;;;5036599;28;20205;-58
2023/04/24 09:36:00;;;;;;;0.50;0.50;;;;;;;;;;5036473;28;20588;-58
2023/04/24 09:38:34;;;;;;;0.60;0.60;;;;;;;;;;5036150;28;20566;-58
2023/04/24 09:41:04;;;;;;;0.40;0.40;;;;;;;;;;5035864;28;20236;-58
2023/04/24 09:43:33;;;;;;;0.70;0.60;;;;;;;;;;5036145;28;20631;-58
2023/04/24 09:46:05;;;;;;;0.60;0.60;;;;;;;;;;5036703;28;20205;-58
2023/04/24 09:48:33;;;;;;;0.70;0.60;;;;;;;;;;5036431;28;20577;-59
2023/04/24 09:51:02;;;;;;;0.40;0.40;;;;;;;;;;5037346;28;20287;-59
2023/04/24 09:53:31;;;;;;;0.60;0.60;;;;;;;;;;5036213;28;20233;-59
2023/04/24 09:56:08;;;;;;;0.50;0.50;;;;;;;;;;5036449;28;20288;-58
2023/04/24 09:58:37;;;;;;;0.52;0.50;;;;;;;;;;5036089;28;20292;-58
2023/04/24 10:01:04;;;;;;;0.90;0.63;;;;;;;;;;5035676;28;20291;-58
2023/04/24 10:03:33;;;;;;;1.30;0.70;;;;;;;;;;5035703;28;20222;-58
2023/04/24 10:06:00;;;;;;;0.60;0.60;;;;;;;;;;5036245;28;20221;-58
2023/04/24 10:08:28;;;;;;;1.05;0.70;;;;;;;;;;5036313;28;20213;-58
2023/04/24 10:10:56;;;;;;;0.50;0.50;;;;;;;;;;5036206;28;20210;-58
2023/04/24 10:13:25;;;;;;;0.63;0.63;;;;;;;;;;5035805;28;20781;-58
2023/04/24 10:15:53;;;;;;;0.50;0.50;;;;;;;;;;5035547;28;20268;-58
2023/04/24 10:18:22;;;;;;;0.60;0.60;;;;;;;;;;5036194;28;20206;-58
2023/04/24 10:20:50;;;;;;;0.60;0.60;;;;;;;;;;5035920;28;20248;-58
2023/04/24 10:23:19;;;;;;;0.82;0.70;;;;;;;;;;5036468;28;20232;-58
2023/04/24 10:25:46;;;;;;;0.50;0.50;;;;;;;;;;5035264;28;20264;-58
2023/04/24 10:28:14;;;;;;;0.70;0.70;;;;;;;;;;5035353;28;20259;-58
2023/04/24 10:30:44;;;;;;;0.85;0.70;;;;;;;;;;5034718;28;20202;-58
2023/04/24 10:33:12;;;;;;;0.60;0.60;;;;;;;;;;5035090;28;20210;-58
2023/04/24 10:35:41;;;;;;;0.70;0.65;;;;;;;;;;5035246;28;20201;-59
2023/04/24 10:38:11;;;;;;;1.30;0.77;;;;;;;;;;5034418;28;20214;-59
2023/04/24 10:40:38;;;;;;;0.60;0.60;;;;;;;;;;5034989;28;20567;-58
2023/04/24 10:43:08;;;;;;;0.70;0.60;;;;;;;;;;5034401;28;20783;-58
2023/04/24 10:45:35;;;;;;;0.57;0.57;;;;;;;;;;5034662;28;20293;-58
2023/04/24 10:48:10;;;;;;;0.80;0.73;;;;;;;;;;5034689;28;20210;-59
2023/04/24 10:50:45;;;;;;;0.68;0.68;;;;;;;;;;5034966;28;20212;-59
2023/04/24 10:53:17;;;;;;;0.90;0.60;;;;;;;;;;5033925;28;20749;-59
2023/04/24 10:55:46;;;;;;;0.70;0.70;;;;;;;;;;5034961;28;20198;-58
2023/04/24 10:58:14;;;;;;;0.80;0.73;;;;;;;;;;5034547;28;20281;-59
2023/04/24 11:00:43;;;;;;;0.75;0.75;;;;;;;;;;5034440;28;20253;-59
2023/04/24 11:03:26;;;;;;;0.70;0.70;;;;;;;;;;5034951;28;20299;-59
2023/04/24 11:05:55;;;;;;;0.98;0.88;;;;;;;;;;5034739;28;20673;-59
2023/04/24 11:08:29;;;;;;;0.88;0.88;;;;;;;;;;5034114;28;20293;-59
2023/04/24 11:10:59;;;;;;;0.80;0.80;;;;;;;;;;5034637;28;20204;-59
2023/04/24 11:13:27;;;;;;;0.77;0.77;;;;;;;;;;5035194;28;20508;-58
2023/04/24 11:16:15;;;;;;;0.80;0.70;;;;;;;;;;5035242;28;20205;-58
2023/04/24 11:18:50;;;;;;;0.60;0.60;;;;;;;;;;5030345;28;20293;-58
2023/04/24 11:21:18;;;;;;;0.85;0.77;;;;;;;;;;5034724;28;20221;-58
2023/04/24 11:23:46;;;;;;;1.00;0.80;;;;;;;;;;5034472;28;20271;-58
2023/04/24 11:26:14;;;;;;;0.75;0.75;;;;;;;;;;5034016;28;20465;-58
2023/04/24 11:28:48;;;;;;;0.88;0.80;;;;;;;;;;5034335;28;20213;-58
2023/04/24 11:31:35;;;;;;;1.05;0.95;;;;;;;;;;5033323;28;20202;-58
2023/04/24 11:34:09;;;;;;;0.80;0.80;;;;;;;;;;5033807;28;20206;-58
2023/04/24 11:36:37;;;;;;;1.20;0.80;;;;;;;;;;5034057;28;20586;-58
2023/04/24 11:39:04;;;;;;;1.27;0.95;;;;;;;;;;5033270;28;20206;-58
2023/04/24 11:41:34;;;;;;;1.10;1.00;;;;;;;;;;5032796;28;20236;-58
2023/04/24 11:44:02;;;;;;;0.98;0.93;;;;;;;;;;5033476;28;20214;-58
2023/04/24 11:46:31;;;;;;;1.10;1.00;;;;;;;;;;5034472;28;20205;-58
2023/04/24 11:49:00;;;;;;;1.00;1.00;;;;;;;;;;5033543;28;20211;-58
2023/04/24 11:51:31;;;;;;;0.93;0.90;;;;;;;;;;5034123;28;20267;-58
2023/04/24 11:53:58;;;;;;;0.98;0.90;;;;;;;;;;5032711;28;20205;-58
2023/04/24 11:56:26;;;;;;;0.80;0.80;;;;;;;;;;5033126;28;20206;-58
2023/04/24 11:58:55;;;;;;;0.90;0.90;;;;;;;;;;5032900;28;20245;-58
2023/04/24 12:01:23;;;;;;;1.08;1.02;;;;;;;;;;5032706;28;20225;-58
2023/04/24 12:03:51;;;;;;;0.90;0.90;;;;;;;;;;5034254;28;20229;-58
2023/04/24 12:06:20;;;;;;;1.00;0.98;;;;;;;;;;5033658;28;20205;-58
2023/04/24 12:08:55;;;;;;;1.08;0.90;;;;;;;;;;5033123;28;20216;-58
2023/04/24 12:11:22;;;;;;;1.00;0.90;;;;;;;;;;5033134;28;20221;-58
2023/04/24 12:13:50;;;;;;;1.00;0.90;;;;;;;;;;5033797;28;20214;-58
2023/04/24 12:16:17;;;;;;;1.20;1.10;;;;;;;;;;5032803;28;20720;-58
2023/04/24 12:18:45;;;;;;;0.95;0.93;;;;;;;;;;5032542;28;20271;-58
2023/04/24 12:21:20;;;;;;;1.10;1.00;;;;;;;;;;5032526;28;20320;-58
2023/04/24 12:23:47;;;;;;;1.20;1.10;;;;;;;;;;5032396;28;20209;-58
2023/04/24 12:26:19;;;;;;;0.82;0.82;;;;;;;;;;5032917;28;20213;-58
2023/04/24 12:28:49;;;;;;;1.20;1.10;;;;;;;;;;5033213;28;20562;-58
2023/04/24 12:31:17;;;;;;;1.48;1.10;;;;;;;;;;5032963;28;20208;-58
2023/04/24 12:33:44;;;;;;;1.38;0.90;;;;;;;;;;5032666;28;20367;-58
2023/04/24 12:36:13;;;;;;;1.67;1.02;;;;;;;;;;5032915;28;20213;-58
2023/04/24 12:38:41;;;;;;;1.38;1.10;;;;;;;;;;5032343;28;20205;-58
2023/04/24 12:41:09;;;;;;;1.15;1.05;;;;;;;;;;5031502;28;20264;-58
2023/04/24 12:43:38;;;;;;;1.20;1.10;;;;;;;;;;5032358;28;20205;-58
2023/04/24 12:46:06;;;;;;;1.08;1.00;;;;;;;;;;5031808;28;20663;-58
2023/04/24 12:48:34;;;;;;;1.00;1.00;;;;;;;;;;5033319;28;20268;-58
2023/04/24 12:51:02;;;;;;;1.35;1.25;;;;;;;;;;5033135;28;20229;-58
2023/04/24 12:53:30;;;;;;;1.20;1.10;;;;;;;;;;5030993;28;20239;-58
2023/04/24 12:55:58;;;;;;;1.50;1.05;;;;;;;;;;5033003;28;20205;-58
2023/04/24 12:58:26;;;;;;;1.70;1.00;;;;;;;;;;5032679;28;20585;-58
2023/04/24 13:00:56;;;;;;;1.05;1.02;;;;;;;;;;4993615;28;20203;-58
2023/04/24 13:03:23;;;;;;;1.20;1.10;;;;;;;;;;4993394;28;20211;-58
2023/04/24 13:05:51;;;;;;;1.00;1.00;;;;;;;;;;4993454;28;20234;-58
2023/04/24 13:08:19;;;;;;;1.10;1.00;;;;;;;;;;4994154;28;20215;-58
2023/04/24 13:10:47;;;;;;;1.20;1.10;;;;;;;;;;4993400;28;20239;-58
2023/04/24 13:13:15;;;;;;;1.00;1.00;;;;;;;;;;4996096;28;20557;-58
2023/04/24 13:15:43;;;;;;;1.05;0.95;;;;;;;;;;4995970;28;20655;-58
2023/04/24 13:18:12;;;;;;;1.70;1.10;;;;;;;;;;4996943;28;20203;-58
2023/04/24 13:20:40;;;;;;;1.30;1.20;;;;;;;;;;4996367;28;20704;-58
2023/04/24 13:23:08;;;;;;;1.10;1.10;;;;;;;;;;4997003;28;20277;-58
2023/04/24 13:25:37;;;;;;;1.00;1.00;;;;;;;;;;4996236;28;20254;-58
2023/04/24 13:28:04;;;;;;;1.27;1.10;;;;;;;;;;4996471;28;20265;-58
2023/04/24 13:30:33;;;;;;;1.70;1.40;;;;;;;;;;4997045;28;20233;-58
2023/04/24 13:33:00;;;;;;;1.27;1.15;;;;;;;;;;4995700;28;20203;-58
2023/04/24 13:35:29;;;;;;;1.20;1.10;;;;;;;;;;4995641;28;20203;-58
2023/04/24 13:37:57;;;;;;;1.40;1.17;;;;;;;;;;4996552;28;20571;-58
2023/04/24 13:40:24;;;;;;;1.20;1.10;;;;;;;;;;4995996;28;20607;-58
2023/04/24 13:42:52;;;;;;;1.20;1.10;;;;;;;;;;4995988;28;20238;-58
2023/04/24 13:45:20;;;;;;;1.20;1.10;;;;;;;;;;4995734;28;20203;-58
2023/04/24 13:47:47;;;;;;;1.30;1.20;;;;;;;;;;4996099;28;20229;-58
2023/04/24 13:50:15;;;;;;;1.10;1.00;;;;;;;;;;4996307;28;20207;-58
2023/04/24 13:52:44;;;;;;;1.00;1.00;;;;;;;;;;4996167;28;20265;-58
2023/04/24 13:55:12;;;;;;;1.30;1.20;;;;;;;;;;4995593;28;20203;-58
2023/04/24 13:57:40;;;;;;;1.10;1.00;;;;;;;;;;4995715;28;20203;-58
2023/04/24 14:00:10;;;;;;;1.20;1.10;;;;;;;;;;5022361;28;20238;-58
2023/04/24 14:02:37;;;;;;;1.00;1.00;;;;;;;;;;5034399;28;20307;-58
2023/04/24 14:05:05;;;;;;;1.00;1.00;;;;;;;;;;5033696;28;20206;-58
2023/04/24 14:07:33;;;;;;;1.00;1.00;;;;;;;;;;5034469;28;20628;-58
2023/04/24 14:10:02;;;;;;;1.77;1.15;;;;;;;;;;5035348;28;20547;-58
2023/04/24 14:12:29;;;;;;;1.10;1.00;;;;;;;;;;5034178;28;20559;-58
2023/04/24 14:14:57;;;;;;;1.02;1.00;;;;;;;;;;5034303;28;20212;-58
2023/04/24 14:17:24;;;;;;;1.20;1.10;;;;;;;;;;5035064;28;20713;-58
2023/04/24 14:19:55;;;;;;;1.20;1.10;;;;;;;;;;5034023;28;20260;-58
2023/04/24 14:22:23;;;;;;;1.00;1.00;;;;;;;;;;5033031;28;20238;-58
2023/04/24 14:24:50;;;;;;;1.30;1.20;;;;;;;;;;5034934;28;20205;-58
2023/04/24 14:27:19;;;;;;;1.20;1.10;;;;;;;;;;5034891;28;20206;-58
2023/04/24 14:29:47;;;;;;;0.85;0.85;;;;;;;;;;5034252;28;20205;-58
2023/04/24 14:32:15;;;;;;;1.25;1.15;;;;;;;;;;5034450;28;20201;-58
2023/04/24 14:34:43;;;;;;;1.20;1.10;;;;;;;;;;5034290;28;20284;-58
2023/04/24 14:37:10;;;;;;;0.95;0.95;;;;;;;;;;5035227;28;20494;-58
2023/04/24 14:39:38;;;;;;;1.20;1.10;;;;;;;;;;5034415;28;20636;-58
2023/04/24 14:42:05;;;;;;;1.10;1.00;;;;;;;;;;5034157;28;20281;-58
2023/04/24 14:44:34;;;;;;;0.98;0.98;;;;;;;;;;5034888;28;20205;-58
2023/04/24 14:47:02;;;;;;;1.08;1.08;;;;;;;;;;5034430;28;20293;-58
2023/04/24 14:49:29;;;;;;;1.20;1.10;;;;;;;;;;5034796;28;20202;-58